sensor_id;sensor_type;location;lat;lon;timestamp;temperature;humidity
52209;DHT22;38507;53.132;6.394;2023-03-11T00:01:24;-0.20;99.90
52209;DHT22;38507;53.132;6.394;2023-03-11T00:03:50;-0.10;99.90
52209;DHT22;38507;53.132;6.394;2023-03-11T00:06:16;-0.20;99.90
52209;DHT22;38507;53.132;6.394;2023-03-11T00:08:42;-0.20;99.90
52209;DHT22;38507;53.132;6.394;2023-03-11T00:11:07;-0.20;99.90
52209;DHT22;38507;53.132;6.394;2023-03-11T00:13:33;0.30;99.90
52209;DHT22;38507;53.132;6.394;2023-03-11T00:16:01;-0.20;99.90
52209;DHT22;38507;53.132;6.394;2023-03-11T00:18:27;-0.10;99.90
52209;DHT22;38507;53.132;6.394;2023-03-11T00:20:57;-0.20;99.90
52209;DHT22;38507;53.132;6.394;2023-03-11T00:23:24;-0.20;99.90
52209;DHT22;38507;53.132;6.394;2023-03-11T00:25:50;-0.20;99.90
52209;DHT22;38507;53.132;6.394;2023-03-11T00:28:16;-0.20;99.90
52209;DHT22;38507;53.132;6.394;2023-03-11T00:30:44;-0.20;99.90
52209;DHT22;38507;53.132;6.394;2023-03-11T00:33:12;-0.20;99.90
52209;DHT22;38507;53.132;6.394;2023-03-11T00:35:38;-0.20;99.90
52209;DHT22;38507;53.132;6.394;2023-03-11T00:38:07;-0.20;99.90
52209;DHT22;38507;53.132;6.394;2023-03-11T00:40:34;-0.20;99.90
52209;DHT22;38507;53.132;6.394;2023-03-11T00:43:01;-0.20;99.90
52209;DHT22;38507;53.132;6.394;2023-03-11T00:45:27;-0.20;99.90
52209;DHT22;38507;53.132;6.394;2023-03-11T00:47:53;-0.10;99.90
52209;DHT22;38507;53.132;6.394;2023-03-11T00:50:22;-0.30;99.90
52209;DHT22;38507;53.132;6.394;2023-03-11T00:52:49;0.30;99.90
52209;DHT22;38507;53.132;6.394;2023-03-11T00:55:18;-0.30;99.90
52209;DHT22;38507;53.132;6.394;2023-03-11T00:57:44;-0.30;99.90
52209;DHT22;38507;53.132;6.394;2023-03-11T01:00:15;-0.40;99.90
52209;DHT22;38507;53.132;6.394;2023-03-11T01:02:41;-0.40;99.90
52209;DHT22;38507;53.132;6.394;2023-03-11T01:05:07;-0.40;99.90
52209;DHT22;38507;53.132;6.394;2023-03-11T01:07:33;-0.40;99.90
52209;DHT22;38507;53.132;6.394;2023-03-11T01:09:59;-0.40;99.90
52209;DHT22;38507;53.132;6.394;2023-03-11T01:12:25;-0.40;99.90
52209;DHT22;38507;53.132;6.394;2023-03-11T01:14:52;-0.40;99.90
52209;DHT22;38507;53.132;6.394;2023-03-11T01:17:17;-0.40;99.90
52209;DHT22;38507;53.132;6.394;2023-03-11T01:19:43;-0.40;99.90
52209;DHT22;38507;53.132;6.394;2023-03-11T01:22:09;-0.40;99.90
52209;DHT22;38507;53.132;6.394;2023-03-11T01:24:35;-0.40;99.90
52209;DHT22;38507;53.132;6.394;2023-03-11T01:27:01;-0.40;99.90
52209;DHT22;38507;53.132;6.394;2023-03-11T01:29:26;-0.40;99.90
52209;DHT22;38507;53.132;6.394;2023-03-11T01:31:52;-0.40;99.90
52209;DHT22;38507;53.132;6.394;2023-03-11T01:34:17;-0.40;99.90
52209;DHT22;38507;53.132;6.394;2023-03-11T01:36:43;-0.40;99.90
52209;DHT22;38507;53.132;6.394;2023-03-11T01:39:09;-0.40;99.90
52209;DHT22;38507;53.132;6.394;2023-03-11T01:41:34;-0.40;99.90
52209;DHT22;38507;53.132;6.394;2023-03-11T01:44:00;-0.40;99.90
52209;DHT22;38507;53.132;6.394;2023-03-11T01:46:30;-0.50;99.90
52209;DHT22;38507;53.132;6.394;2023-03-11T01:48:58;-0.50;99.90
52209;DHT22;38507;53.132;6.394;2023-03-11T01:51:44;-0.50;99.90
52209;DHT22;38507;53.132;6.394;2023-03-11T01:54:30;-0.50;99.90
52209;DHT22;38507;53.132;6.394;2023-03-11T01:57:01;-0.50;99.90
52209;DHT22;38507;53.132;6.394;2023-03-11T01:59:32;-0.50;99.90
52209;DHT22;38507;53.132;6.394;2023-03-11T02:02:05;-0.50;99.90
52209;DHT22;38507;53.132;6.394;2023-03-11T02:04:33;-0.50;99.90
52209;DHT22;38507;53.132;6.394;2023-03-11T02:07:00;-0.60;99.90
52209;DHT22;38507;53.132;6.394;2023-03-11T02:09:26;-0.60;99.90
52209;DHT22;38507;53.132;6.394;2023-03-11T02:11:52;-0.60;99.90
52209;DHT22;38507;53.132;6.394;2023-03-11T02:14:18;-0.70;99.90
52209;DHT22;38507;53.132;6.394;2023-03-11T02:16:44;-0.70;99.90
52209;DHT22;38507;53.132;6.394;2023-03-11T02:19:43;-0.70;99.90
52209;DHT22;38507;53.132;6.394;2023-03-11T02:22:10;-0.70;99.90
52209;DHT22;38507;53.132;6.394;2023-03-11T02:25:01;-0.80;99.90
52209;DHT22;38507;53.132;6.394;2023-03-11T02:27:27;-0.80;99.90
52209;DHT22;38507;53.132;6.394;2023-03-11T02:29:56;-0.80;99.90
52209;DHT22;38507;53.132;6.394;2023-03-11T02:32:23;-0.90;99.90
52209;DHT22;38507;53.132;6.394;2023-03-11T02:34:49;-0.90;99.90
52209;DHT22;38507;53.132;6.394;2023-03-11T02:37:16;-0.90;99.90
52209;DHT22;38507;53.132;6.394;2023-03-11T02:39:49;-0.90;99.90
52209;DHT22;38507;53.132;6.394;2023-03-11T02:42:22;-1.00;99.90
52209;DHT22;38507;53.132;6.394;2023-03-11T02:45:07;-1.00;99.90
52209;DHT22;38507;53.132;6.394;2023-03-11T02:47:33;-1.00;99.90
52209;DHT22;38507;53.132;6.394;2023-03-11T02:50:00;-1.00;99.90
52209;DHT22;38507;53.132;6.394;2023-03-11T02:52:27;-1.00;99.90
52209;DHT22;38507;53.132;6.394;2023-03-11T02:54:53;-1.00;99.90
52209;DHT22;38507;53.132;6.394;2023-03-11T02:57:18;-1.00;99.90
52209;DHT22;38507;53.132;6.394;2023-03-11T02:59:44;-1.10;99.90
52209;DHT22;38507;53.132;6.394;2023-03-11T03:02:10;-1.10;99.90
52209;DHT22;38507;53.132;6.394;2023-03-11T03:04:35;-1.20;99.90
52209;DHT22;38507;53.132;6.394;2023-03-11T03:07:01;-1.20;99.90
52209;DHT22;38507;53.132;6.394;2023-03-11T03:09:27;-1.30;99.90
52209;DHT22;38507;53.132;6.394;2023-03-11T03:11:52;-1.30;99.90
52209;DHT22;38507;53.132;6.394;2023-03-11T03:14:18;-1.40;99.90
52209;DHT22;38507;53.132;6.394;2023-03-11T03:16:44;-1.50;99.90
52209;DHT22;38507;53.132;6.394;2023-03-11T03:19:09;-1.50;99.90
52209;DHT22;38507;53.132;6.394;2023-03-11T03:21:35;-1.60;99.90
52209;DHT22;38507;53.132;6.394;2023-03-11T03:24:00;-1.60;99.90
52209;DHT22;38507;53.132;6.394;2023-03-11T03:26:26;-1.60;99.90
52209;DHT22;38507;53.132;6.394;2023-03-11T03:28:52;-1.60;99.90
52209;DHT22;38507;53.132;6.394;2023-03-11T03:31:18;-1.60;99.90
52209;DHT22;38507;53.132;6.394;2023-03-11T03:33:44;-1.70;99.90
52209;DHT22;38507;53.132;6.394;2023-03-11T03:36:12;-1.70;99.90
52209;DHT22;38507;53.132;6.394;2023-03-11T03:38:38;-0.70;99.90
52209;DHT22;38507;53.132;6.394;2023-03-11T03:41:04;-1.70;99.90
52209;DHT22;38507;53.132;6.394;2023-03-11T03:43:30;-1.80;99.90
52209;DHT22;38507;53.132;6.394;2023-03-11T03:45:57;-1.80;99.90
52209;DHT22;38507;53.132;6.394;2023-03-11T03:48:23;-1.90;99.90
52209;DHT22;38507;53.132;6.394;2023-03-11T03:50:49;-2.00;99.90
52209;DHT22;38507;53.132;6.394;2023-03-11T03:53:14;-2.00;99.90
52209;DHT22;38507;53.132;6.394;2023-03-11T03:55:40;-2.10;99.90
52209;DHT22;38507;53.132;6.394;2023-03-11T03:58:06;-2.10;99.90
52209;DHT22;38507;53.132;6.394;2023-03-11T04:00:32;-2.20;99.90
52209;DHT22;38507;53.132;6.394;2023-03-11T04:02:58;-2.30;99.90
52209;DHT22;38507;53.132;6.394;2023-03-11T04:05:24;-1.20;99.90
52209;DHT22;38507;53.132;6.394;2023-03-11T04:07:51;-2.50;99.90
52209;DHT22;38507;53.132;6.394;2023-03-11T04:10:17;-2.50;99.90
52209;DHT22;38507;53.132;6.394;2023-03-11T04:12:43;-2.50;99.90
52209;DHT22;38507;53.132;6.394;2023-03-11T04:15:08;-2.60;99.90
52209;DHT22;38507;53.132;6.394;2023-03-11T04:17:35;-2.70;99.90
52209;DHT22;38507;53.132;6.394;2023-03-11T04:20:00;-2.70;99.90
52209;DHT22;38507;53.132;6.394;2023-03-11T04:22:26;-2.70;99.90
52209;DHT22;38507;53.132;6.394;2023-03-11T04:24:52;-2.80;99.90
52209;DHT22;38507;53.132;6.394;2023-03-11T04:27:17;-2.80;99.90
52209;DHT22;38507;53.132;6.394;2023-03-11T04:29:43;-2.80;99.90
52209;DHT22;38507;53.132;6.394;2023-03-11T04:32:08;-2.90;99.90
52209;DHT22;38507;53.132;6.394;2023-03-11T04:34:34;-2.80;99.90
52209;DHT22;38507;53.132;6.394;2023-03-11T04:37:00;-2.90;99.90
52209;DHT22;38507;53.132;6.394;2023-03-11T04:39:25;-2.90;99.90
52209;DHT22;38507;53.132;6.394;2023-03-11T04:41:51;-2.80;99.90
52209;DHT22;38507;53.132;6.394;2023-03-11T04:44:17;-2.90;99.90
52209;DHT22;38507;53.132;6.394;2023-03-11T04:46:42;-3.00;99.90
52209;DHT22;38507;53.132;6.394;2023-03-11T04:49:08;-3.00;99.90
52209;DHT22;38507;53.132;6.394;2023-03-11T04:51:34;-3.10;99.90
52209;DHT22;38507;53.132;6.394;2023-03-11T04:54:00;-3.20;99.90
52209;DHT22;38507;53.132;6.394;2023-03-11T04:56:26;-3.20;99.90
52209;DHT22;38507;53.132;6.394;2023-03-11T04:58:51;-3.20;99.90
52209;DHT22;38507;53.132;6.394;2023-03-11T05:01:17;-3.20;99.90
52209;DHT22;38507;53.132;6.394;2023-03-11T05:03:42;-3.30;99.90
52209;DHT22;38507;53.132;6.394;2023-03-11T05:06:08;-3.20;99.90
52209;DHT22;38507;53.132;6.394;2023-03-11T05:08:34;-3.20;99.90
52209;DHT22;38507;53.132;6.394;2023-03-11T05:10:59;-3.30;99.90
52209;DHT22;38507;53.132;6.394;2023-03-11T05:13:25;-3.40;99.90
52209;DHT22;38507;53.132;6.394;2023-03-11T05:15:50;-3.50;99.90
52209;DHT22;38507;53.132;6.394;2023-03-11T05:18:16;-3.50;99.90
52209;DHT22;38507;53.132;6.394;2023-03-11T05:20:42;-3.50;99.90
52209;DHT22;38507;53.132;6.394;2023-03-11T05:23:08;-3.50;99.90
52209;DHT22;38507;53.132;6.394;2023-03-11T05:25:33;-3.50;99.90
52209;DHT22;38507;53.132;6.394;2023-03-11T05:28:00;-3.60;99.90
52209;DHT22;38507;53.132;6.394;2023-03-11T05:30:25;-3.50;99.90
52209;DHT22;38507;53.132;6.394;2023-03-11T05:32:51;-3.60;99.90
52209;DHT22;38507;53.132;6.394;2023-03-11T05:35:17;-3.50;99.90
52209;DHT22;38507;53.132;6.394;2023-03-11T05:37:42;-3.50;99.90
52209;DHT22;38507;53.132;6.394;2023-03-11T05:40:10;-3.50;99.90
52209;DHT22;38507;53.132;6.394;2023-03-11T05:42:36;-3.50;99.90
52209;DHT22;38507;53.132;6.394;2023-03-11T05:45:02;-3.50;99.90
52209;DHT22;38507;53.132;6.394;2023-03-11T05:47:28;-3.50;99.90
52209;DHT22;38507;53.132;6.394;2023-03-11T05:49:54;-3.60;99.90
52209;DHT22;38507;53.132;6.394;2023-03-11T05:52:20;-3.60;99.90
52209;DHT22;38507;53.132;6.394;2023-03-11T05:54:49;-3.60;99.90
52209;DHT22;38507;53.132;6.394;2023-03-11T05:57:16;-3.60;99.90
52209;DHT22;38507;53.132;6.394;2023-03-11T05:59:41;-3.50;99.90
52209;DHT22;38507;53.132;6.394;2023-03-11T06:02:07;-3.50;99.90
52209;DHT22;38507;53.132;6.394;2023-03-11T06:04:33;-3.50;99.90
52209;DHT22;38507;53.132;6.394;2023-03-11T06:06:58;-3.50;99.90
52209;DHT22;38507;53.132;6.394;2023-03-11T06:09:24;-3.50;99.90
52209;DHT22;38507;53.132;6.394;2023-03-11T06:11:50;-3.50;99.90
52209;DHT22;38507;53.132;6.394;2023-03-11T06:14:16;-3.50;99.90
52209;DHT22;38507;53.132;6.394;2023-03-11T06:16:42;-3.50;99.90
52209;DHT22;38507;53.132;6.394;2023-03-11T06:19:08;-3.50;99.90
52209;DHT22;38507;53.132;6.394;2023-03-11T06:21:34;-3.50;99.90
52209;DHT22;38507;53.132;6.394;2023-03-11T06:23:59;-3.50;99.90
52209;DHT22;38507;53.132;6.394;2023-03-11T06:26:25;-3.50;99.90
52209;DHT22;38507;53.132;6.394;2023-03-11T06:28:51;-3.60;99.90
52209;DHT22;38507;53.132;6.394;2023-03-11T06:31:20;-3.50;99.90
52209;DHT22;38507;53.132;6.394;2023-03-11T06:33:47;-3.70;99.90
52209;DHT22;38507;53.132;6.394;2023-03-11T06:36:14;-3.70;99.90
52209;DHT22;38507;53.132;6.394;2023-03-11T06:38:41;-3.60;99.90
52209;DHT22;38507;53.132;6.394;2023-03-11T06:41:07;-3.60;99.90
52209;DHT22;38507;53.132;6.394;2023-03-11T06:43:34;-3.60;99.90
52209;DHT22;38507;53.132;6.394;2023-03-11T06:46:00;-3.50;99.90
52209;DHT22;38507;53.132;6.394;2023-03-11T06:48:26;-3.50;99.90
52209;DHT22;38507;53.132;6.394;2023-03-11T06:50:59;-3.50;99.90
52209;DHT22;38507;53.132;6.394;2023-03-11T06:53:26;-3.50;99.90
52209;DHT22;38507;53.132;6.394;2023-03-11T06:56:03;-3.40;99.90
52209;DHT22;38507;53.132;6.394;2023-03-11T06:58:30;-3.40;99.90
52209;DHT22;38507;53.132;6.394;2023-03-11T07:01:09;-3.30;99.90
52209;DHT22;38507;53.132;6.394;2023-03-11T07:03:34;-3.10;99.90
52209;DHT22;38507;53.132;6.394;2023-03-11T07:06:00;-3.30;99.90
52209;DHT22;38507;53.132;6.394;2023-03-11T07:08:26;-3.20;99.90
52209;DHT22;38507;53.132;6.394;2023-03-11T07:11:07;-3.20;99.90
52209;DHT22;38507;53.132;6.394;2023-03-11T07:13:34;-3.10;99.90
52209;DHT22;38507;53.132;6.394;2023-03-11T07:16:05;-3.10;99.90
52209;DHT22;38507;53.132;6.394;2023-03-11T07:18:32;-3.00;99.90
52209;DHT22;38507;53.132;6.394;2023-03-11T07:20:58;-3.00;99.90
52209;DHT22;38507;53.132;6.394;2023-03-11T07:23:23;-2.90;99.90
52209;DHT22;38507;53.132;6.394;2023-03-11T07:25:49;-2.90;99.90
52209;DHT22;38507;53.132;6.394;2023-03-11T07:28:17;-2.90;99.90
52209;DHT22;38507;53.132;6.394;2023-03-11T07:30:43;-2.90;99.90
52209;DHT22;38507;53.132;6.394;2023-03-11T07:33:11;-2.80;99.90
52209;DHT22;38507;53.132;6.394;2023-03-11T07:35:37;-2.10;99.90
52209;DHT22;38507;53.132;6.394;2023-03-11T07:38:03;-2.70;99.90
52209;DHT22;38507;53.132;6.394;2023-03-11T07:40:28;-2.70;99.90
52209;DHT22;38507;53.132;6.394;2023-03-11T07:42:54;-2.60;99.90
52209;DHT22;38507;53.132;6.394;2023-03-11T07:45:20;-2.60;99.90
52209;DHT22;38507;53.132;6.394;2023-03-11T07:47:45;-2.60;99.90
52209;DHT22;38507;53.132;6.394;2023-03-11T07:50:11;-2.50;99.90
52209;DHT22;38507;53.132;6.394;2023-03-11T07:52:40;-2.40;99.90
52209;DHT22;38507;53.132;6.394;2023-03-11T07:55:05;-2.40;99.90
52209;DHT22;38507;53.132;6.394;2023-03-11T07:57:31;-2.30;99.90
52209;DHT22;38507;53.132;6.394;2023-03-11T07:59:56;-2.20;99.90
52209;DHT22;38507;53.132;6.394;2023-03-11T08:02:22;-2.20;99.90
52209;DHT22;38507;53.132;6.394;2023-03-11T08:04:48;-2.10;99.90
52209;DHT22;38507;53.132;6.394;2023-03-11T08:07:13;-2.00;99.90
52209;DHT22;38507;53.132;6.394;2023-03-11T08:09:39;-1.90;99.90
52209;DHT22;38507;53.132;6.394;2023-03-11T08:12:05;-1.90;99.90
52209;DHT22;38507;53.132;6.394;2023-03-11T08:14:30;-1.70;99.90
52209;DHT22;38507;53.132;6.394;2023-03-11T08:16:56;-1.60;99.90
52209;DHT22;38507;53.132;6.394;2023-03-11T08:19:22;-1.50;99.90
52209;DHT22;38507;53.132;6.394;2023-03-11T08:21:47;-1.50;99.90
52209;DHT22;38507;53.132;6.394;2023-03-11T08:24:13;-1.30;99.90
52209;DHT22;38507;53.132;6.394;2023-03-11T08:26:40;-1.20;99.90
52209;DHT22;38507;53.132;6.394;2023-03-11T08:29:06;-1.10;99.90
52209;DHT22;38507;53.132;6.394;2023-03-11T08:31:33;-1.00;99.90
52209;DHT22;38507;53.132;6.394;2023-03-11T08:34:05;-0.90;99.90
52209;DHT22;38507;53.132;6.394;2023-03-11T08:36:31;-0.70;99.90
52209;DHT22;38507;53.132;6.394;2023-03-11T08:38:58;-0.60;99.90
52209;DHT22;38507;53.132;6.394;2023-03-11T08:41:24;-0.40;99.90
52209;DHT22;38507;53.132;6.394;2023-03-11T08:43:49;-0.30;99.90
52209;DHT22;38507;53.132;6.394;2023-03-11T08:46:23;-0.10;99.90
52209;DHT22;38507;53.132;6.394;2023-03-11T08:48:49;0.00;99.90
52209;DHT22;38507;53.132;6.394;2023-03-11T08:51:15;0.10;99.90
52209;DHT22;38507;53.132;6.394;2023-03-11T08:53:42;0.30;99.90
52209;DHT22;38507;53.132;6.394;2023-03-11T08:56:07;0.40;99.90
52209;DHT22;38507;53.132;6.394;2023-03-11T08:58:33;0.60;99.90
52209;DHT22;38507;53.132;6.394;2023-03-11T09:01:00;0.70;99.90
52209;DHT22;38507;53.132;6.394;2023-03-11T09:03:25;0.90;99.90
52209;DHT22;38507;53.132;6.394;2023-03-11T09:05:59;1.00;99.90
52209;DHT22;38507;53.132;6.394;2023-03-11T09:08:26;1.30;99.90
52209;DHT22;38507;53.132;6.394;2023-03-11T09:10:52;1.50;99.90
52209;DHT22;38507;53.132;6.394;2023-03-11T09:13:17;1.70;99.90
52209;DHT22;38507;53.132;6.394;2023-03-11T09:15:43;1.90;99.90
52209;DHT22;38507;53.132;6.394;2023-03-11T09:18:13;2.10;99.90
52209;DHT22;38507;53.132;6.394;2023-03-11T09:20:39;2.20;99.90
52209;DHT22;38507;53.132;6.394;2023-03-11T09:23:06;2.40;99.90
52209;DHT22;38507;53.132;6.394;2023-03-11T09:25:32;2.70;99.90
52209;DHT22;38507;53.132;6.394;2023-03-11T09:27:58;2.90;99.90
52209;DHT22;38507;53.132;6.394;2023-03-11T09:30:23;3.20;99.90
52209;DHT22;38507;53.132;6.394;2023-03-11T09:32:49;3.40;99.90
52209;DHT22;38507;53.132;6.394;2023-03-11T09:35:15;3.50;99.90
52209;DHT22;38507;53.132;6.394;2023-03-11T09:37:40;3.60;99.90
52209;DHT22;38507;53.132;6.394;2023-03-11T09:40:07;3.80;99.90
52209;DHT22;38507;53.132;6.394;2023-03-11T09:45:45;4.10;99.90
52209;DHT22;38507;53.132;6.394;2023-03-11T09:48:21;4.30;99.90
52209;DHT22;38507;53.132;6.394;2023-03-11T09:50:55;4.40;99.90
52209;DHT22;38507;53.132;6.394;2023-03-11T09:53:35;4.50;99.90
52209;DHT22;38507;53.132;6.394;2023-03-11T09:56:10;4.70;99.90
52209;DHT22;38507;53.132;6.394;2023-03-11T09:59:12;4.80;99.90
52209;DHT22;38507;53.132;6.394;2023-03-11T10:01:32;5.10;99.90
52209;DHT22;38507;53.132;6.394;2023-03-11T10:04:17;5.50;99.90
52209;DHT22;38507;53.132;6.394;2023-03-11T10:06:45;5.40;99.90
52209;DHT22;38507;53.132;6.394;2023-03-11T10:09:47;6.30;99.90
52209;DHT22;38507;53.132;6.394;2023-03-11T10:17:45;5.50;99.90
52209;DHT22;38507;53.132;6.394;2023-03-11T10:28:31;5.50;99.90
52209;DHT22;38507;53.132;6.394;2023-03-11T10:31:12;5.60;99.90
52209;DHT22;38507;53.132;6.394;2023-03-11T10:33:51;5.50;99.90
52209;DHT22;38507;53.132;6.394;2023-03-11T10:36:23;5.60;99.90
52209;DHT22;38507;53.132;6.394;2023-03-11T10:38:52;5.80;99.90
52209;DHT22;38507;53.132;6.394;2023-03-11T10:41:42;5.80;99.90
52209;DHT22;38507;53.132;6.394;2023-03-11T10:44:14;5.80;99.90
52209;DHT22;38507;53.132;6.394;2023-03-11T10:46:41;5.80;99.90
52209;DHT22;38507;53.132;6.394;2023-03-11T10:49:13;5.80;99.90
52209;DHT22;38507;53.132;6.394;2023-03-11T10:51:40;5.80;99.90
52209;DHT22;38507;53.132;6.394;2023-03-11T10:54:06;5.80;99.90
52209;DHT22;38507;53.132;6.394;2023-03-11T10:56:39;5.90;99.90
52209;DHT22;38507;53.132;6.394;2023-03-11T11:01:59;6.20;99.90
52209;DHT22;38507;53.132;6.394;2023-03-11T11:04:43;6.10;99.90
52209;DHT22;38507;53.132;6.394;2023-03-11T11:07:38;6.20;99.90
52209;DHT22;38507;53.132;6.394;2023-03-11T11:10:19;6.30;99.90
52209;DHT22;38507;53.132;6.394;2023-03-11T11:23:39;7.60;99.90
52209;DHT22;38507;53.132;6.394;2023-03-11T11:28:40;7.40;99.90
52209;DHT22;38507;53.132;6.394;2023-03-11T11:31:19;6.80;99.90
52209;DHT22;38507;53.132;6.394;2023-03-11T11:33:52;6.80;99.90
52209;DHT22;38507;53.132;6.394;2023-03-11T11:36:20;6.80;99.90
52209;DHT22;38507;53.132;6.394;2023-03-11T11:38:51;7.90;99.90
52209;DHT22;38507;53.132;6.394;2023-03-11T11:41:21;7.10;99.90
52209;DHT22;38507;53.132;6.394;2023-03-11T11:43:53;6.90;99.90
52209;DHT22;38507;53.132;6.394;2023-03-11T11:46:37;6.80;99.90
52209;DHT22;38507;53.132;6.394;2023-03-11T11:49:15;6.70;99.90
52209;DHT22;38507;53.132;6.394;2023-03-11T11:51:46;6.50;99.90
52209;DHT22;38507;53.132;6.394;2023-03-11T11:54:17;6.40;99.90
52209;DHT22;38507;53.132;6.394;2023-03-11T11:56:45;7.20;99.90
52209;DHT22;38507;53.132;6.394;2023-03-11T11:59:16;6.30;99.90
52209;DHT22;38507;53.132;6.394;2023-03-11T12:04:26;6.30;99.90
52209;DHT22;38507;53.132;6.394;2023-03-11T12:07:08;6.30;99.90
52209;DHT22;38507;53.132;6.394;2023-03-11T12:14:58;6.10;99.90
52209;DHT22;38507;53.132;6.394;2023-03-11T12:17:27;6.20;99.90
52209;DHT22;38507;53.132;6.394;2023-03-11T12:20:19;6.30;99.90
52209;DHT22;38507;53.132;6.394;2023-03-11T12:23:16;6.30;99.90
52209;DHT22;38507;53.132;6.394;2023-03-11T12:28:44;6.20;99.90
52209;DHT22;38507;53.132;6.394;2023-03-11T12:31:12;5.90;99.90
52209;DHT22;38507;53.132;6.394;2023-03-11T12:33:46;6.10;99.90
52209;DHT22;38507;53.132;6.394;2023-03-11T12:38:50;6.00;99.90
52209;DHT22;38507;53.132;6.394;2023-03-11T12:41:29;5.90;99.90
52209;DHT22;38507;53.132;6.394;2023-03-11T12:43:58;5.90;99.90
52209;DHT22;38507;53.132;6.394;2023-03-11T12:49:30;5.80;99.90
52209;DHT22;38507;53.132;6.394;2023-03-11T12:54:37;5.80;99.90
52209;DHT22;38507;53.132;6.394;2023-03-11T13:10:32;6.10;99.90
52209;DHT22;38507;53.132;6.394;2023-03-11T13:12:59;6.10;99.90
52209;DHT22;38507;53.132;6.394;2023-03-11T13:15:33;6.20;99.90
52209;DHT22;38507;53.132;6.394;2023-03-11T13:25:39;6.40;99.90
52209;DHT22;38507;53.132;6.394;2023-03-11T13:28:38;6.50;99.90
52209;DHT22;38507;53.132;6.394;2023-03-11T13:37:20;6.60;99.90
52209;DHT22;38507;53.132;6.394;2023-03-11T13:39:58;6.60;99.90
52209;DHT22;38507;53.132;6.394;2023-03-11T13:42:35;6.60;99.90
52209;DHT22;38507;53.132;6.394;2023-03-11T13:45:02;6.70;99.90
52209;DHT22;38507;53.132;6.394;2023-03-11T13:47:30;6.70;99.90
52209;DHT22;38507;53.132;6.394;2023-03-11T13:50:09;6.80;99.90
52209;DHT22;38507;53.132;6.394;2023-03-11T13:52:48;7.00;99.90
52209;DHT22;38507;53.132;6.394;2023-03-11T13:57:54;7.00;99.90
52209;DHT22;38507;53.132;6.394;2023-03-11T14:00:25;7.10;99.90
52209;DHT22;38507;53.132;6.394;2023-03-11T14:03:00;7.10;99.90
52209;DHT22;38507;53.132;6.394;2023-03-11T14:05:31;7.00;99.90
52209;DHT22;38507;53.132;6.394;2023-03-11T14:08:26;7.00;99.90
52209;DHT22;38507;53.132;6.394;2023-03-11T14:13:40;7.30;99.90
52209;DHT22;38507;53.132;6.394;2023-03-11T14:16:16;7.70;99.90
52209;DHT22;38507;53.132;6.394;2023-03-11T14:18:44;7.30;99.90
52209;DHT22;38507;53.132;6.394;2023-03-11T14:21:19;7.50;99.90
52209;DHT22;38507;53.132;6.394;2023-03-11T14:23:49;7.40;99.90
52209;DHT22;38507;53.132;6.394;2023-03-11T14:26:26;7.30;99.90
52209;DHT22;38507;53.132;6.394;2023-03-11T14:28:56;7.50;99.90
52209;DHT22;38507;53.132;6.394;2023-03-11T14:31:31;7.50;99.90
52209;DHT22;38507;53.132;6.394;2023-03-11T14:34:00;7.30;99.90
52209;DHT22;38507;53.132;6.394;2023-03-11T14:36:48;7.40;99.90
52209;DHT22;38507;53.132;6.394;2023-03-11T14:39:36;7.50;99.90
52209;DHT22;38507;53.132;6.394;2023-03-11T14:44:36;7.30;99.90
52209;DHT22;38507;53.132;6.394;2023-03-11T14:47:26;7.60;99.90
52209;DHT22;38507;53.132;6.394;2023-03-11T14:49:55;6.50;99.90
52209;DHT22;38507;53.132;6.394;2023-03-11T14:52:43;6.30;99.90
52209;DHT22;38507;53.132;6.394;2023-03-11T14:55:22;6.10;99.90
52209;DHT22;38507;53.132;6.394;2023-03-11T15:00:23;5.80;99.90
52209;DHT22;38507;53.132;6.394;2023-03-11T15:06:07;6.00;99.90
52209;DHT22;38507;53.132;6.394;2023-03-11T15:08:46;6.20;99.90
52209;DHT22;38507;53.132;6.394;2023-03-11T15:11:17;6.00;99.90
52209;DHT22;38507;53.132;6.394;2023-03-11T15:13:45;5.90;99.90
52209;DHT22;38507;53.132;6.394;2023-03-11T15:18:53;5.40;99.90
52209;DHT22;38507;53.132;6.394;2023-03-11T15:21:21;5.10;99.90
52209;DHT22;38507;53.132;6.394;2023-03-11T15:24:03;5.10;99.90
52209;DHT22;38507;53.132;6.394;2023-03-11T15:26:34;4.90;99.90
52209;DHT22;38507;53.132;6.394;2023-03-11T15:29:03;4.80;99.90
52209;DHT22;38507;53.132;6.394;2023-03-11T15:31:37;4.80;99.90
52209;DHT22;38507;53.132;6.394;2023-03-11T15:34:20;4.70;99.90
52209;DHT22;38507;53.132;6.394;2023-03-11T15:39:24;4.70;99.90
52209;DHT22;38507;53.132;6.394;2023-03-11T15:42:00;4.60;99.90
52209;DHT22;38507;53.132;6.394;2023-03-11T15:47:01;4.60;99.90
52209;DHT22;38507;53.132;6.394;2023-03-11T15:49:30;4.70;99.90
52209;DHT22;38507;53.132;6.394;2023-03-11T15:51:59;5.00;99.90
52209;DHT22;38507;53.132;6.394;2023-03-11T15:54:26;5.00;99.90
52209;DHT22;38507;53.132;6.394;2023-03-11T15:56:52;5.10;99.90
52209;DHT22;38507;53.132;6.394;2023-03-11T15:59:19;5.30;99.90
52209;DHT22;38507;53.132;6.394;2023-03-11T16:01:46;5.20;99.90
52209;DHT22;38507;53.132;6.394;2023-03-11T16:04:17;5.20;99.90
52209;DHT22;38507;53.132;6.394;2023-03-11T16:06:44;5.60;99.90
52209;DHT22;38507;53.132;6.394;2023-03-11T16:09:11;5.10;99.90
52209;DHT22;38507;53.132;6.394;2023-03-11T16:11:37;4.90;99.90
52209;DHT22;38507;53.132;6.394;2023-03-11T16:14:04;4.80;99.90
52209;DHT22;38507;53.132;6.394;2023-03-11T16:16:30;4.80;99.90
52209;DHT22;38507;53.132;6.394;2023-03-11T16:18:56;5.10;99.90
52209;DHT22;38507;53.132;6.394;2023-03-11T16:21:25;4.70;99.90
52209;DHT22;38507;53.132;6.394;2023-03-11T16:23:54;5.10;99.90
52209;DHT22;38507;53.132;6.394;2023-03-11T16:26:21;4.60;99.90
52209;DHT22;38507;53.132;6.394;2023-03-11T16:28:47;4.50;99.90
52209;DHT22;38507;53.132;6.394;2023-03-11T16:31:12;4.50;99.90
52209;DHT22;38507;53.132;6.394;2023-03-11T16:33:38;4.40;99.90
52209;DHT22;38507;53.132;6.394;2023-03-11T16:36:04;4.30;99.90
52209;DHT22;38507;53.132;6.394;2023-03-11T16:38:30;4.20;99.90
52209;DHT22;38507;53.132;6.394;2023-03-11T16:41:01;4.10;99.90
52209;DHT22;38507;53.132;6.394;2023-03-11T16:43:28;4.00;99.90
52209;DHT22;38507;53.132;6.394;2023-03-11T16:45:54;3.90;99.90
52209;DHT22;38507;53.132;6.394;2023-03-11T16:48:23;3.90;99.90
52209;DHT22;38507;53.132;6.394;2023-03-11T16:50:49;3.90;99.90
52209;DHT22;38507;53.132;6.394;2023-03-11T16:53:15;3.90;99.90
52209;DHT22;38507;53.132;6.394;2023-03-11T16:55:44;3.90;99.90
52209;DHT22;38507;53.132;6.394;2023-03-11T16:58:10;4.00;99.90
52209;DHT22;38507;53.132;6.394;2023-03-11T17:00:36;4.00;99.90
52209;DHT22;38507;53.132;6.394;2023-03-11T17:03:02;4.00;99.90
52209;DHT22;38507;53.132;6.394;2023-03-11T17:05:28;4.10;99.90
52209;DHT22;38507;53.132;6.394;2023-03-11T17:07:55;4.10;99.90
52209;DHT22;38507;53.132;6.394;2023-03-11T17:10:26;4.10;99.90
52209;DHT22;38507;53.132;6.394;2023-03-11T17:12:53;4.30;99.90
52209;DHT22;38507;53.132;6.394;2023-03-11T17:15:19;4.80;99.90
52209;DHT22;38507;53.132;6.394;2023-03-11T17:17:45;4.00;99.90
52209;DHT22;38507;53.132;6.394;2023-03-11T17:20:11;3.80;99.90
52209;DHT22;38507;53.132;6.394;2023-03-11T17:22:36;3.50;99.90
52209;DHT22;38507;53.132;6.394;2023-03-11T17:25:02;3.40;99.90
52209;DHT22;38507;53.132;6.394;2023-03-11T17:27:28;3.20;99.90
52209;DHT22;38507;53.132;6.394;2023-03-11T17:29:58;3.10;99.90